sensor_id;sensor_type;location;lat;lon;timestamp;P1;durP1;ratioP1;P2;durP2;ratioP2
41687;SDS011;27371;42.686;23.362;2022-09-09T00:04:33;9.45;;;5.78;;
41687;SDS011;27371;42.686;23.362;2022-09-09T00:09:27;9.80;;;5.90;;
41687;SDS011;27371;42.686;23.362;2022-09-09T00:12:36;7.93;;;5.80;;
41687;SDS011;27371;42.686;23.362;2022-09-09T00:20:05;9.43;;;6.07;;
41687;SDS011;27371;42.686;23.362;2022-09-09T00:22:36;9.65;;;6.30;;
41687;SDS011;27371;42.686;23.362;2022-09-09T00:25:09;8.57;;;6.38;;
41687;SDS011;27371;42.686;23.362;2022-09-09T00:30:23;8.43;;;6.38;;
41687;SDS011;27371;42.686;23.362;2022-09-09T00:33:10;9.45;;;7.10;;
41687;SDS011;27371;42.686;23.362;2022-09-09T00:35:37;7.90;;;7.10;;
41687;SDS011;27371;42.686;23.362;2022-09-09T00:38:10;8.80;;;7.43;;
41687;SDS011;27371;42.686;23.362;2022-09-09T00:40:49;10.35;;;6.63;;
41687;SDS011;27371;42.686;23.362;2022-09-09T00:43:26;14.60;;;7.50;;
41687;SDS011;27371;42.686;23.362;2022-09-09T00:48:17;8.75;;;6.97;;
41687;SDS011;27371;42.686;23.362;2022-09-09T00:58:08;6.97;;;6.03;;
41687;SDS011;27371;42.686;23.362;2022-09-09T01:05:48;6.65;;;5.40;;
41687;SDS011;27371;42.686;23.362;2022-09-09T01:13:11;8.77;;;6.55;;
41687;SDS011;27371;42.686;23.362;2022-09-09T01:15:38;6.78;;;5.38;;
41687;SDS011;27371;42.686;23.362;2022-09-09T01:18:12;9.35;;;6.43;;
41687;SDS011;27371;42.686;23.362;2022-09-09T01:26:13;7.32;;;5.43;;
41687;SDS011;27371;42.686;23.362;2022-09-09T01:28:39;7.88;;;5.32;;
41687;SDS011;27371;42.686;23.362;2022-09-09T01:31:05;5.85;;;5.00;;
41687;SDS011;27371;42.686;23.362;2022-09-09T01:33:32;8.45;;;5.70;;
41687;SDS011;27371;42.686;23.362;2022-09-09T01:36:00;5.93;;;5.18;;
41687;SDS011;27371;42.686;23.362;2022-09-09T01:38:26;7.07;;;4.93;;
41687;SDS011;27371;42.686;23.362;2022-09-09T01:40:52;9.73;;;5.15;;
41687;SDS011;27371;42.686;23.362;2022-09-09T01:43:19;7.47;;;5.43;;
41687;SDS011;27371;42.686;23.362;2022-09-09T01:45:44;7.38;;;5.40;;
41687;SDS011;27371;42.686;23.362;2022-09-09T01:48:11;7.60;;;5.57;;
41687;SDS011;27371;42.686;23.362;2022-09-09T01:50:36;7.40;;;5.88;;
41687;SDS011;27371;42.686;23.362;2022-09-09T01:53:02;7.00;;;5.53;;
41687;SDS011;27371;42.686;23.362;2022-09-09T01:55:29;10.75;;;5.63;;
41687;SDS011;27371;42.686;23.362;2022-09-09T01:57:59;8.23;;;5.78;;
41687;SDS011;27371;42.686;23.362;2022-09-09T02:00:30;6.03;;;4.65;;
41687;SDS011;27371;42.686;23.362;2022-09-09T02:08:00;7.13;;;5.88;;
41687;SDS011;27371;42.686;23.362;2022-09-09T02:10:40;9.15;;;5.80;;
41687;SDS011;27371;42.686;23.362;2022-09-09T02:13:11;6.13;;;5.53;;
41687;SDS011;27371;42.686;23.362;2022-09-09T02:18:09;6.43;;;5.82;;
41687;SDS011;27371;42.686;23.362;2022-09-09T02:20:39;7.50;;;5.30;;
41687;SDS011;27371;42.686;23.362;2022-09-09T02:23:05;8.68;;;5.72;;
41687;SDS011;27371;42.686;23.362;2022-09-09T02:25:31;9.20;;;5.93;;
41687;SDS011;27371;42.686;23.362;2022-09-09T02:27:58;8.05;;;5.70;;
41687;SDS011;27371;42.686;23.362;2022-09-09T02:30:23;7.38;;;6.00;;
41687;SDS011;27371;42.686;23.362;2022-09-09T02:32:49;9.15;;;6.70;;
41687;SDS011;27371;42.686;23.362;2022-09-09T02:35:21;7.57;;;5.65;;
41687;SDS011;27371;42.686;23.362;2022-09-09T02:37:49;9.02;;;6.85;;
41687;SDS011;27371;42.686;23.362;2022-09-09T02:40:16;11.65;;;6.65;;
41687;SDS011;27371;42.686;23.362;2022-09-09T02:42:42;11.43;;;6.10;;
41687;SDS011;27371;42.686;23.362;2022-09-09T02:45:08;8.77;;;6.05;;
41687;SDS011;27371;42.686;23.362;2022-09-09T02:47:35;7.82;;;6.10;;
41687;SDS011;27371;42.686;23.362;2022-09-09T02:50:07;8.10;;;6.20;;
41687;SDS011;27371;42.686;23.362;2022-09-09T02:58:00;9.63;;;5.85;;
41687;SDS011;27371;42.686;23.362;2022-09-09T03:00:27;7.13;;;6.38;;
41687;SDS011;27371;42.686;23.362;2022-09-09T03:02:52;9.07;;;6.38;;
41687;SDS011;27371;42.686;23.362;2022-09-09T03:05:19;8.15;;;5.78;;
41687;SDS011;27371;42.686;23.362;2022-09-09T03:07:45;9.23;;;6.15;;
41687;SDS011;27371;42.686;23.362;2022-09-09T03:10:10;7.60;;;6.38;;
41687;SDS011;27371;42.686;23.362;2022-09-09T03:12:35;7.72;;;6.25;;
41687;SDS011;27371;42.686;23.362;2022-09-09T03:15:01;10.10;;;6.68;;
41687;SDS011;27371;42.686;23.362;2022-09-09T03:17:27;10.88;;;6.80;;
41687;SDS011;27371;42.686;23.362;2022-09-09T03:19:53;9.15;;;6.03;;
41687;SDS011;27371;42.686;23.362;2022-09-09T03:22:19;11.23;;;6.63;;
41687;SDS011;27371;42.686;23.362;2022-09-09T03:24:45;8.80;;;6.50;;
41687;SDS011;27371;42.686;23.362;2022-09-09T03:27:12;8.77;;;6.95;;
41687;SDS011;27371;42.686;23.362;2022-09-09T03:29:37;7.50;;;6.40;;
41687;SDS011;27371;42.686;23.362;2022-09-09T03:32:02;8.35;;;6.32;;
41687;SDS011;27371;42.686;23.362;2022-09-09T03:34:27;6.75;;;5.97;;
41687;SDS011;27371;42.686;23.362;2022-09-09T03:36:53;8.23;;;6.80;;
41687;SDS011;27371;42.686;23.362;2022-09-09T03:39:18;11.93;;;7.03;;
41687;SDS011;27371;42.686;23.362;2022-09-09T03:41:43;9.77;;;7.05;;
41687;SDS011;27371;42.686;23.362;2022-09-09T03:44:10;7.25;;;6.40;;
41687;SDS011;27371;42.686;23.362;2022-09-09T03:46:35;13.00;;;8.30;;
41687;SDS011;27371;42.686;23.362;2022-09-09T03:49:00;9.45;;;7.80;;
41687;SDS011;27371;42.686;23.362;2022-09-09T03:51:27;8.52;;;7.53;;
41687;SDS011;27371;42.686;23.362;2022-09-09T03:53:53;12.70;;;8.07;;
41687;SDS011;27371;42.686;23.362;2022-09-09T03:56:20;9.00;;;6.40;;
41687;SDS011;27371;42.686;23.362;2022-09-09T03:58:46;8.25;;;6.72;;
41687;SDS011;27371;42.686;23.362;2022-09-09T04:01:12;11.43;;;7.75;;
41687;SDS011;27371;42.686;23.362;2022-09-09T04:03:42;8.20;;;6.43;;
41687;SDS011;27371;42.686;23.362;2022-09-09T04:06:08;13.30;;;6.88;;
41687;SDS011;27371;42.686;23.362;2022-09-09T04:08:34;9.65;;;6.95;;
41687;SDS011;27371;42.686;23.362;2022-09-09T04:11:01;10.52;;;6.55;;
41687;SDS011;27371;42.686;23.362;2022-09-09T04:13:30;12.35;;;7.03;;
41687;SDS011;27371;42.686;23.362;2022-09-09T04:15:56;8.77;;;6.97;;
41687;SDS011;27371;42.686;23.362;2022-09-09T04:18:22;9.18;;;7.30;;
41687;SDS011;27371;42.686;23.362;2022-09-09T04:20:49;9.70;;;7.95;;
41687;SDS011;27371;42.686;23.362;2022-09-09T04:23:15;12.65;;;8.68;;
41687;SDS011;27371;42.686;23.362;2022-09-09T04:25:44;13.98;;;8.65;;
41687;SDS011;27371;42.686;23.362;2022-09-09T04:28:10;11.90;;;7.28;;
41687;SDS011;27371;42.686;23.362;2022-09-09T04:30:35;17.25;;;8.18;;
41687;SDS011;27371;42.686;23.362;2022-09-09T04:33:01;13.82;;;8.27;;
41687;SDS011;27371;42.686;23.362;2022-09-09T04:35:26;12.63;;;7.38;;
41687;SDS011;27371;42.686;23.362;2022-09-09T04:37:52;11.52;;;7.32;;
41687;SDS011;27371;42.686;23.362;2022-09-09T04:40:17;13.57;;;7.78;;
41687;SDS011;27371;42.686;23.362;2022-09-09T04:42:43;10.52;;;7.68;;
41687;SDS011;27371;42.686;23.362;2022-09-09T04:45:09;11.82;;;7.30;;
41687;SDS011;27371;42.686;23.362;2022-09-09T04:47:36;16.63;;;9.77;;
41687;SDS011;27371;42.686;23.362;2022-09-09T04:50:01;14.27;;;8.18;;
41687;SDS011;27371;42.686;23.362;2022-09-09T04:52:26;11.13;;;8.27;;
41687;SDS011;27371;42.686;23.362;2022-09-09T04:54:53;12.40;;;7.53;;
41687;SDS011;27371;42.686;23.362;2022-09-09T04:57:19;12.07;;;7.95;;
41687;SDS011;27371;42.686;23.362;2022-09-09T04:59:44;13.50;;;7.70;;
41687;SDS011;27371;42.686;23.362;2022-09-09T05:02:11;10.48;;;7.18;;
41687;SDS011;27371;42.686;23.362;2022-09-09T05:04:36;18.33;;;7.50;;
41687;SDS011;27371;42.686;23.362;2022-09-09T05:07:01;16.70;;;8.05;;
41687;SDS011;27371;42.686;23.362;2022-09-09T05:09:27;14.07;;;7.25;;
41687;SDS011;27371;42.686;23.362;2022-09-09T05:11:52;12.52;;;7.20;;
41687;SDS011;27371;42.686;23.362;2022-09-09T05:14:18;19.67;;;7.88;;
41687;SDS011;27371;42.686;23.362;2022-09-09T05:16:46;10.70;;;7.22;;
41687;SDS011;27371;42.686;23.362;2022-09-09T05:19:12;14.30;;;6.50;;
41687;SDS011;27371;42.686;23.362;2022-09-09T05:21:37;16.20;;;6.90;;
41687;SDS011;27371;42.686;23.362;2022-09-09T05:24:03;10.10;;;6.60;;
41687;SDS011;27371;42.686;23.362;2022-09-09T05:26:28;8.93;;;6.43;;
41687;SDS011;27371;42.686;23.362;2022-09-09T05:28:54;10.88;;;6.50;;
41687;SDS011;27371;42.686;23.362;2022-09-09T05:31:20;12.02;;;6.93;;
41687;SDS011;27371;42.686;23.362;2022-09-09T05:33:45;14.77;;;6.28;;
41687;SDS011;27371;42.686;23.362;2022-09-09T05:36:12;16.60;;;7.15;;
41687;SDS011;27371;42.686;23.362;2022-09-09T05:38:44;9.60;;;6.05;;
41687;SDS011;27371;42.686;23.362;2022-09-09T05:41:10;14.48;;;6.30;;
41687;SDS011;27371;42.686;23.362;2022-09-09T05:43:36;12.57;;;5.82;;
41687;SDS011;27371;42.686;23.362;2022-09-09T05:46:06;13.07;;;5.80;;
41687;SDS011;27371;42.686;23.362;2022-09-09T05:48:39;10.93;;;5.53;;
41687;SDS011;27371;42.686;23.362;2022-09-09T05:51:06;9.25;;;4.97;;
41687;SDS011;27371;42.686;23.362;2022-09-09T05:53:35;10.25;;;5.00;;
41687;SDS011;27371;42.686;23.362;2022-09-09T05:56:01;11.35;;;4.85;;
41687;SDS011;27371;42.686;23.362;2022-09-09T05:58:28;8.07;;;3.65;;
41687;SDS011;27371;42.686;23.362;2022-09-09T06:00:59;11.80;;;3.50;;
41687;SDS011;27371;42.686;23.362;2022-09-09T06:03:25;9.23;;;3.75;;
41687;SDS011;27371;42.686;23.362;2022-09-09T06:05:56;5.80;;;3.10;;
41687;SDS011;27371;42.686;23.362;2022-09-09T06:08:22;6.88;;;3.28;;
41687;SDS011;27371;42.686;23.362;2022-09-09T06:10:47;7.80;;;3.45;;
41687;SDS011;27371;42.686;23.362;2022-09-09T06:13:12;8.27;;;4.45;;
41687;SDS011;27371;42.686;23.362;2022-09-09T06:15:38;7.03;;;3.67;;
41687;SDS011;27371;42.686;23.362;2022-09-09T06:18:03;6.68;;;3.92;;
41687;SDS011;27371;42.686;23.362;2022-09-09T06:20:28;6.15;;;3.83;;
41687;SDS011;27371;42.686;23.362;2022-09-09T06:22:55;6.32;;;3.58;;
41687;SDS011;27371;42.686;23.362;2022-09-09T06:25:20;6.50;;;3.45;;
41687;SDS011;27371;42.686;23.362;2022-09-09T06:27:49;6.47;;;2.90;;
41687;SDS011;27371;42.686;23.362;2022-09-09T06:30:15;4.50;;;2.83;;
41687;SDS011;27371;42.686;23.362;2022-09-09T06:32:42;6.15;;;2.88;;
41687;SDS011;27371;42.686;23.362;2022-09-09T06:35:07;5.53;;;2.97;;
41687;SDS011;27371;42.686;23.362;2022-09-09T06:37:33;5.45;;;2.70;;
41687;SDS011;27371;42.686;23.362;2022-09-09T06:39:58;4.93;;;2.67;;
41687;SDS011;27371;42.686;23.362;2022-09-09T06:42:23;10.23;;;2.80;;
41687;SDS011;27371;42.686;23.362;2022-09-09T06:44:49;8.25;;;3.08;;
41687;SDS011;27371;42.686;23.362;2022-09-09T06:47:14;6.07;;;3.00;;
41687;SDS011;27371;42.686;23.362;2022-09-09T06:49:39;6.43;;;2.80;;
41687;SDS011;27371;42.686;23.362;2022-09-09T06:52:04;9.32;;;3.25;;
41687;SDS011;27371;42.686;23.362;2022-09-09T06:54:30;7.88;;;3.10;;
41687;SDS011;27371;42.686;23.362;2022-09-09T06:56:55;5.50;;;2.63;;
41687;SDS011;27371;42.686;23.362;2022-09-09T06:59:21;5.45;;;3.22;;
41687;SDS011;27371;42.686;23.362;2022-09-09T07:01:46;10.82;;;3.22;;
41687;SDS011;27371;42.686;23.362;2022-09-09T07:04:11;9.75;;;2.70;;
41687;SDS011;27371;42.686;23.362;2022-09-09T07:06:40;8.48;;;3.33;;
41687;SDS011;27371;42.686;23.362;2022-09-09T07:09:08;7.72;;;3.72;;
41687;SDS011;27371;42.686;23.362;2022-09-09T07:11:37;7.57;;;2.97;;
41687;SDS011;27371;42.686;23.362;2022-09-09T07:14:03;9.20;;;3.17;;
41687;SDS011;27371;42.686;23.362;2022-09-09T07:16:28;6.82;;;3.30;;
41687;SDS011;27371;42.686;23.362;2022-09-09T07:18:56;8.13;;;3.20;;
41687;SDS011;27371;42.686;23.362;2022-09-09T07:21:25;7.82;;;2.83;;
41687;SDS011;27371;42.686;23.362;2022-09-09T07:23:52;6.38;;;3.13;;
41687;SDS011;27371;42.686;23.362;2022-09-09T07:26:18;11.60;;;3.17;;
41687;SDS011;27371;42.686;23.362;2022-09-09T07:28:46;7.75;;;3.42;;
41687;SDS011;27371;42.686;23.362;2022-09-09T07:31:15;7.68;;;3.03;;
41687;SDS011;27371;42.686;23.362;2022-09-09T07:33:41;9.63;;;3.17;;
41687;SDS011;27371;42.686;23.362;2022-09-09T07:36:08;10.77;;;3.35;;
41687;SDS011;27371;42.686;23.362;2022-09-09T07:38:38;8.27;;;3.17;;
41687;SDS011;27371;42.686;23.362;2022-09-09T07:41:07;6.47;;;3.00;;
41687;SDS011;27371;42.686;23.362;2022-09-09T07:43:37;4.03;;;2.50;;
41687;SDS011;27371;42.686;23.362;2022-09-09T07:46:02;6.35;;;3.20;;
41687;SDS011;27371;42.686;23.362;2022-09-09T07:48:28;5.97;;;2.70;;
41687;SDS011;27371;42.686;23.362;2022-09-09T07:51:02;7.05;;;2.90;;
41687;SDS011;27371;42.686;23.362;2022-09-09T07:55:53;13.57;;;3.55;;
41687;SDS011;27371;42.686;23.362;2022-09-09T07:58:20;6.07;;;3.30;;
41687;SDS011;27371;42.686;23.362;2022-09-09T08:00:45;12.43;;;3.20;;
41687;SDS011;27371;42.686;23.362;2022-09-09T08:03:10;8.50;;;3.25;;
41687;SDS011;27371;42.686;23.362;2022-09-09T08:05:36;5.93;;;2.90;;
41687;SDS011;27371;42.686;23.362;2022-09-09T08:08:01;7.45;;;3.35;;
41687;SDS011;27371;42.686;23.362;2022-09-09T08:10:28;7.28;;;3.53;;
41687;SDS011;27371;42.686;23.362;2022-09-09T08:12:54;8.00;;;3.60;;
41687;SDS011;27371;42.686;23.362;2022-09-09T08:15:20;5.13;;;2.63;;
41687;SDS011;27371;42.686;23.362;2022-09-09T08:17:45;6.80;;;3.10;;
41687;SDS011;27371;42.686;23.362;2022-09-09T08:20:10;7.75;;;3.20;;
41687;SDS011;27371;42.686;23.362;2022-09-09T08:22:36;7.57;;;2.58;;
41687;SDS011;27371;42.686;23.362;2022-09-09T08:25:02;9.73;;;3.25;;
41687;SDS011;27371;42.686;23.362;2022-09-09T08:27:31;6.35;;;2.90;;
41687;SDS011;27371;42.686;23.362;2022-09-09T08:29:57;8.18;;;3.40;;
41687;SDS011;27371;42.686;23.362;2022-09-09T08:32:23;6.50;;;3.40;;
41687;SDS011;27371;42.686;23.362;2022-09-09T08:34:49;7.22;;;3.00;;
41687;SDS011;27371;42.686;23.362;2022-09-09T08:37:17;7.45;;;3.20;;
41687;SDS011;27371;42.686;23.362;2022-09-09T08:39:42;11.55;;;2.97;;
41687;SDS011;27371;42.686;23.362;2022-09-09T08:42:13;10.48;;;3.42;;
41687;SDS011;27371;42.686;23.362;2022-09-09T08:52:42;6.78;;;3.47;;
41687;SDS011;27371;42.686;23.362;2022-09-09T08:57:44;5.07;;;3.00;;
41687;SDS011;27371;42.686;23.362;2022-09-09T09:00:11;5.32;;;3.15;;
41687;SDS011;27371;42.686;23.362;2022-09-09T09:02:44;5.72;;;3.60;;
41687;SDS011;27371;42.686;23.362;2022-09-09T09:12:42;8.18;;;3.67;;
41687;SDS011;27371;42.686;23.362;2022-09-09T09:15:52;8.75;;;3.20;;
41687;SDS011;27371;42.686;23.362;2022-09-09T09:18:01;6.30;;;3.25;;
41687;SDS011;27371;42.686;23.362;2022-09-09T09:21:10;7.82;;;3.60;;
41687;SDS011;27371;42.686;23.362;2022-09-09T09:23:24;5.95;;;3.03;;
41687;SDS011;27371;42.686;23.362;2022-09-09T09:25:50;8.68;;;3.85;;
41687;SDS011;27371;42.686;23.362;2022-09-09T09:28:23;5.38;;;3.22;;
41687;SDS011;27371;42.686;23.362;2022-09-09T09:30:50;7.93;;;3.45;;
41687;SDS011;27371;42.686;23.362;2022-09-09T09:33:25;7.15;;;3.38;;
41687;SDS011;27371;42.686;23.362;2022-09-09T09:35:52;6.13;;;3.10;;
41687;SDS011;27371;42.686;23.362;2022-09-09T09:38:28;14.32;;;3.30;;
41687;SDS011;27371;42.686;23.362;2022-09-09T09:40:57;7.22;;;3.20;;
41687;SDS011;27371;42.686;23.362;2022-09-09T09:45:54;7.53;;;3.90;;
41687;SDS011;27371;42.686;23.362;2022-09-09T09:48:20;4.72;;;2.92;;
41687;SDS011;27371;42.686;23.362;2022-09-09T09:53:21;8.40;;;3.30;;
41687;SDS011;27371;42.686;23.362;2022-09-09T09:55:52;4.55;;;3.08;;
41687;SDS011;27371;42.686;23.362;2022-09-09T09:58:19;6.80;;;3.42;;
41687;SDS011;27371;42.686;23.362;2022-09-09T10:00:50;11.75;;;3.22;;
41687;SDS011;27371;42.686;23.362;2022-09-09T10:03:27;7.32;;;3.42;;
41687;SDS011;27371;42.686;23.362;2022-09-09T10:05:53;5.22;;;3.30;;
41687;SDS011;27371;42.686;23.362;2022-09-09T10:08:19;7.22;;;3.20;;
41687;SDS011;27371;42.686;23.362;2022-09-09T10:18:17;9.75;;;3.08;;
41687;SDS011;27371;42.686;23.362;2022-09-09T10:23:19;9.23;;;3.97;;
41687;SDS011;27371;42.686;23.362;2022-09-09T10:28:30;7.45;;;3.63;;
41687;SDS011;27371;42.686;23.362;2022-09-09T10:36:13;11.05;;;3.83;;
41687;SDS011;27371;42.686;23.362;2022-09-09T10:38:41;6.60;;;3.70;;
41687;SDS011;27371;42.686;23.362;2022-09-09T10:57:00;8.90;;;3.97;;
41687;SDS011;27371;42.686;23.362;2022-09-09T10:59:28;10.32;;;4.80;;
41687;SDS011;27371;42.686;23.362;2022-09-09T11:01:57;8.38;;;4.60;;
41687;SDS011;27371;42.686;23.362;2022-09-09T11:04:48;10.48;;;4.22;;
41687;SDS011;27371;42.686;23.362;2022-09-09T11:07:11;12.15;;;5.28;;
41687;SDS011;27371;42.686;23.362;2022-09-09T11:09:42;11.55;;;4.38;;
41687;SDS011;27371;42.686;23.362;2022-09-09T11:12:12;9.82;;;4.55;;
41687;SDS011;27371;42.686;23.362;2022-09-09T11:17:04;11.57;;;4.72;;
41687;SDS011;27371;42.686;23.362;2022-09-09T11:22:04;8.88;;;4.38;;
41687;SDS011;27371;42.686;23.362;2022-09-09T11:24:39;13.95;;;4.82;;
41687;SDS011;27371;42.686;23.362;2022-09-09T11:40:23;9.23;;;4.60;;
41687;SDS011;27371;42.686;23.362;2022-09-09T11:42:48;9.68;;;4.70;;
41687;SDS011;27371;42.686;23.362;2022-09-09T11:45:22;8.00;;;4.88;;
41687;SDS011;27371;42.686;23.362;2022-09-09T11:47:52;11.95;;;4.85;;
41687;SDS011;27371;42.686;23.362;2022-09-09T11:52:50;12.00;;;4.78;;
41687;SDS011;27371;42.686;23.362;2022-09-09T11:55:26;8.65;;;4.78;;
41687;SDS011;27371;42.686;23.362;2022-09-09T11:58:02;11.15;;;5.15;;
41687;SDS011;27371;42.686;23.362;2022-09-09T12:00:49;12.43;;;5.00;;
41687;SDS011;27371;42.686;23.362;2022-09-09T12:03:32;10.52;;;5.10;;
41687;SDS011;27371;42.686;23.362;2022-09-09T12:05:59;13.38;;;5.30;;
41687;SDS011;27371;42.686;23.362;2022-09-09T12:08:26;11.00;;;5.38;;
41687;SDS011;27371;42.686;23.362;2022-09-09T12:10:57;10.40;;;5.45;;
41687;SDS011;27371;42.686;23.362;2022-09-09T12:13:23;12.57;;;5.20;;
41687;SDS011;27371;42.686;23.362;2022-09-09T12:15:52;12.13;;;5.25;;
41687;SDS011;27371;42.686;23.362;2022-09-09T12:18:25;10.25;;;5.25;;
41687;SDS011;27371;42.686;23.362;2022-09-09T12:20:57;12.52;;;5.22;;
41687;SDS011;27371;42.686;23.362;2022-09-09T12:31:06;13.40;;;6.07;;
41687;SDS011;27371;42.686;23.362;2022-09-09T12:33:34;12.70;;;4.70;;
41687;SDS011;27371;42.686;23.362;2022-09-09T12:36:00;11.73;;;5.70;;
41687;SDS011;27371;42.686;23.362;2022-09-09T12:38:34;15.25;;;5.75;;
41687;SDS011;27371;42.686;23.362;2022-09-09T12:41:01;12.68;;;5.53;;
41687;SDS011;27371;42.686;23.362;2022-09-09T12:43:26;10.32;;;5.28;;
41687;SDS011;27371;42.686;23.362;2022-09-09T12:46:14;10.52;;;5.85;;
41687;SDS011;27371;42.686;23.362;2022-09-09T12:48:44;13.23;;;5.20;;
41687;SDS011;27371;42.686;23.362;2022-09-09T12:51:27;12.50;;;5.63;;
41687;SDS011;27371;42.686;23.362;2022-09-09T12:53:53;9.02;;;5.20;;
41687;SDS011;27371;42.686;23.362;2022-09-09T12:56:20;12.13;;;5.40;;
41687;SDS011;27371;42.686;23.362;2022-09-09T12:58:47;12.15;;;5.15;;
41687;SDS011;27371;42.686;23.362;2022-09-09T13:01:21;9.52;;;4.60;;
41687;SDS011;27371;42.686;23.362;2022-09-09T13:03:47;10.30;;;5.05;;
41687;SDS011;27371;42.686;23.362;2022-09-09T13:06:16;12.82;;;5.38;;
41687;SDS011;27371;42.686;23.362;2022-09-09T13:08:43;13.50;;;5.75;;
41687;SDS011;27371;42.686;23.362;2022-09-09T13:11:10;10.15;;;5.10;;
41687;SDS011;27371;42.686;23.362;2022-09-09T13:13:39;14.60;;;5.20;;
41687;SDS011;27371;42.686;23.362;2022-09-09T13:16:05;10.70;;;5.18;;
41687;SDS011;27371;42.686;23.362;2022-09-09T13:18:37;13.38;;;5.35;;
41687;SDS011;27371;42.686;23.362;2022-09-09T13:21:05;12.18;;;5.43;;
41687;SDS011;27371;42.686;23.362;2022-09-09T13:23:31;13.95;;;5.55;;
41687;SDS011;27371;42.686;23.362;2022-09-09T13:26:18;10.77;;;5.18;;
41687;SDS011;27371;42.686;23.362;2022-09-09T13:28:42;10.15;;;5.20;;
41687;SDS011;27371;42.686;23.362;2022-09-09T13:31:20;7.72;;;5.20;;
41687;SDS011;27371;42.686;23.362;2022-09-09T13:33:46;9.07;;;5.50;;
41687;SDS011;27371;42.686;23.362;2022-09-09T13:36:11;12.27;;;5.55;;
41687;SDS011;27371;42.686;23.362;2022-09-09T13:38:39;9.50;;;5.40;;
41687;SDS011;27371;42.686;23.362;2022-09-09T13:41:06;13.85;;;5.57;;
41687;SDS011;27371;42.686;23.362;2022-09-09T13:43:42;9.48;;;5.28;;
41687;SDS011;27371;42.686;23.362;2022-09-09T13:46:26;13.77;;;5.75;;
41687;SDS011;27371;42.686;23.362;2022-09-09T13:49:02;12.30;;;5.68;;
41687;SDS011;27371;42.686;23.362;2022-09-09T13:53:53;10.88;;;5.88;;
41687;SDS011;27371;42.686;23.362;2022-09-09T13:56:19;11.57;;;5.57;;
41687;SDS011;27371;42.686;23.362;2022-09-09T13:58:44;13.65;;;5.63;;
41687;SDS011;27371;42.686;23.362;2022-09-09T14:01:10;14.27;;;5.93;;
41687;SDS011;27371;42.686;23.362;2022-09-09T14:03:36;14.35;;;6.13;;
41687;SDS011;27371;42.686;23.362;2022-09-09T14:06:02;12.90;;;5.97;;
41687;SDS011;27371;42.686;23.362;2022-09-09T14:08:27;14.00;;;5.25;;
41687;SDS011;27371;42.686;23.362;2022-09-09T14:11:01;20.13;;;5.57;;
41687;SDS011;27371;42.686;23.362;2022-09-09T14:13:27;9.30;;;5.30;;
41687;SDS011;27371;42.686;23.362;2022-09-09T14:15:52;10.35;;;5.38;;
41687;SDS011;27371;42.686;23.362;2022-09-09T14:18:18;14.38;;;5.80;;
41687;SDS011;27371;42.686;23.362;2022-09-09T14:20:44;8.68;;;4.97;;
41687;SDS011;27371;42.686;23.362;2022-09-09T14:23:12;10.98;;;4.95;;
41687;SDS011;27371;42.686;23.362;2022-09-09T14:25:41;14.50;;;5.57;;
41687;SDS011;27371;42.686;23.362;2022-09-09T14:28:08;12.30;;;5.32;;
41687;SDS011;27371;42.686;23.362;2022-09-09T14:30:33;10.95;;;6.00;;
41687;SDS011;27371;42.686;23.362;2022-09-09T14:32:59;8.98;;;4.75;;
41687;SDS011;27371;42.686;23.362;2022-09-09T14:35:25;10.20;;;5.10;;
41687;SDS011;27371;42.686;23.362;2022-09-09T14:37:50;12.63;;;4.70;;
41687;SDS011;27371;42.686;23.362;2022-09-09T14:40:16;12.88;;;4.80;;
41687;SDS011;27371;42.686;23.362;2022-09-09T14:42:41;14.55;;;5.13;;
41687;SDS011;27371;42.686;23.362;2022-09-09T14:45:06;11.65;;;5.55;;
41687;SDS011;27371;42.686;23.362;2022-09-09T14:47:32;12.80;;;5.03;;
41687;SDS011;27371;42.686;23.362;2022-09-09T14:49:57;15.63;;;4.50;;
41687;SDS011;27371;42.686;23.362;2022-09-09T14:52:22;15.73;;;5.15;;
41687;SDS011;27371;42.686;23.362;2022-09-09T14:54:48;12.32;;;5.30;;
41687;SDS011;27371;42.686;23.362;2022-09-09T14:57:14;9.15;;;4.38;;
41687;SDS011;27371;42.686;23.362;2022-09-09T14:59:40;10.32;;;5.13;;
41687;SDS011;27371;42.686;23.362;2022-09-09T15:02:05;12.23;;;4.70;;
41687;SDS011;27371;42.686;23.362;2022-09-09T15:04:30;14.82;;;5.22;;
41687;SDS011;27371;42.686;23.362;2022-09-09T15:06:56;12.32;;;4.85;;
41687;SDS011;27371;42.686;23.362;2022-09-09T15:09:21;7.18;;;4.50;;
41687;SDS011;27371;42.686;23.362;2022-09-09T15:11:47;11.88;;;4.97;;
41687;SDS011;27371;42.686;23.362;2022-09-09T15:14:13;6.80;;;5.28;;
41687;SDS011;27371;42.686;23.362;2022-09-09T15:16:38;15.98;;;5.20;;
41687;SDS011;27371;42.686;23.362;2022-09-09T15:19:04;10.85;;;5.53;;
41687;SDS011;27371;42.686;23.362;2022-09-09T15:21:33;10.55;;;5.40;;
41687;SDS011;27371;42.686;23.362;2022-09-09T15:23:59;9.10;;;5.25;;
41687;SDS011;27371;42.686;23.362;2022-09-09T15:26:25;9.82;;;4.93;;
41687;SDS011;27371;42.686;23.362;2022-09-09T15:28:50;17.10;;;5.30;;
41687;SDS011;27371;42.686;23.362;2022-09-09T15:33:48;14.02;;;5.57;;
41687;SDS011;27371;42.686;23.362;2022-09-09T15:38:39;17.00;;;5.40;;
41687;SDS011;27371;42.686;23.362;2022-09-09T15:41:05;11.52;;;5.20;;
41687;SDS011;27371;42.686;23.362;2022-09-09T15:43:30;8.50;;;4.40;;
41687;SDS011;27371;42.686;23.362;2022-09-09T15:45:57;13.02;;;4.68;;
41687;SDS011;27371;42.686;23.362;2022-09-09T15:48:29;10.68;;;4.68;;
41687;SDS011;27371;42.686;23.362;2022-09-09T15:51:02;7.95;;;4.30;;
41687;SDS011;27371;42.686;23.362;2022-09-09T15:53:28;13.55;;;4.53;;
41687;SDS011;27371;42.686;23.362;2022-09-09T15:55:54;12.70;;;5.63;;
41687;SDS011;27371;42.686;23.362;2022-09-09T15:58:20;13.73;;;5.10;;
41687;SDS011;27371;42.686;23.362;2022-09-09T16:00:46;10.70;;;5.28;;
41687;SDS011;27371;42.686;23.362;2022-09-09T16:03:11;14.00;;;4.65;;
41687;SDS011;27371;42.686;23.362;2022-09-09T16:05:37;12.98;;;5.65;;
41687;SDS011;27371;42.686;23.362;2022-09-09T16:08:02;16.38;;;5.22;;
41687;SDS011;27371;42.686;23.362;2022-09-09T16:10:28;10.95;;;4.70;;
41687;SDS011;27371;42.686;23.362;2022-09-09T16:12:53;11.50;;;5.50;;
41687;SDS011;27371;42.686;23.362;2022-09-09T16:15:18;11.75;;;5.07;;
41687;SDS011;27371;42.686;23.362;2022-09-09T16:17:47;9.05;;;4.63;;
41687;SDS011;27371;42.686;23.362;2022-09-09T16:20:12;15.70;;;5.45;;
41687;SDS011;27371;42.686;23.362;2022-09-09T16:22:39;15.77;;;5.28;;
41687;SDS011;27371;42.686;23.362;2022-09-09T16:25:05;16.10;;;5.93;;
41687;SDS011;27371;42.686;23.362;2022-09-09T16:27:31;10.73;;;4.45;;
41687;SDS011;27371;42.686;23.362;2022-09-09T16:29:56;15.50;;;5.10;;
41687;SDS011;27371;42.686;23.362;2022-09-09T16:32:22;13.45;;;5.07;;
41687;SDS011;27371;42.686;23.362;2022-09-09T16:34:47;11.55;;;4.82;;
41687;SDS011;27371;42.686;23.362;2022-09-09T16:37:12;19.33;;;4.70;;
41687;SDS011;27371;42.686;23.362;2022-09-09T16:39:38;18.10;;;5.10;;
41687;SDS011;27371;42.686;23.362;2022-09-09T16:42:03;17.00;;;5.32;;
41687;SDS011;27371;42.686;23.362;2022-09-09T16:44:29;12.35;;;5.57;;
41687;SDS011;27371;42.686;23.362;2022-09-09T16:46:55;17.55;;;7.68;;
41687;SDS011;27371;42.686;23.362;2022-09-09T16:49:21;17.20;;;8.82;;
41687;SDS011;27371;42.686;23.362;2022-09-09T16:51:47;12.73;;;8.43;;
41687;SDS011;27371;42.686;23.362;2022-09-09T16:54:13;14.50;;;7.50;;
41687;SDS011;27371;42.686;23.362;2022-09-09T16:56:41;18.42;;;7.57;;
41687;SDS011;27371;42.686;23.362;2022-09-09T16:59:08;16.40;;;8.55;;